Time;durP1;ratioP1;P1;durP2;ratioP2;P2;SDS_P1;SDS_P2;PMS_P1;PMS_P2;Temp;Humidity;BMP_temperature;BMP_pressure;BME280_temperature;BME280_humidity;BME280_pressure;Samples;Min_cycle;Max_cycle;Signal;HPM_P1;HPM_P2
2023/04/30 00:01:41;;;;;;;21.60;15.68;;;;;;;9.22;83.67;97389.19;10363555;28;20115;-51
2023/04/30 00:06:40;;;;;;;16.48;11.85;;;;;;;8.79;83.89;97332.31;10363276;28;20476;-51
2023/04/30 00:11:39;;;;;;;17.48;11.35;;;;;;;9.22;83.25;97402.16;10361773;28;20546;-51
2023/04/30 00:16:38;;;;;;;19.63;11.73;;;;;;;8.96;83.00;97368.53;10362608;28;20490;-51
2023/04/30 00:21:37;;;;;;;22.42;14.98;;;;;;;8.63;84.08;97318.53;10362497;28;20034;-52
2023/04/30 00:26:36;;;;;;;20.27;12.70;;;;;;;8.92;84.81;97406.47;10362782;28;20116;-49
2023/04/30 00:31:35;;;;;;;16.88;12.65;;;;;;;8.85;86.27;97406.47;10361684;28;20045;-51
2023/04/30 00:36:34;;;;;;;21.50;14.10;;;;;;;8.81;85.71;97409.91;10362101;28;20032;-50
2023/04/30 00:41:36;;;;;;;21.48;14.77;;;;;;;8.71;86.36;97398.72;10362981;28;20088;-50
2023/04/30 00:46:35;;;;;;;34.22;21.40;;;;;;;8.52;87.64;97405.59;10361597;28;20120;-50
2023/04/30 00:51:35;;;;;;;31.17;21.88;;;;;;;8.33;89.31;97409.88;10361090;28;20051;-49
2023/04/30 00:56:34;;;;;;;26.30;18.05;;;;;;;8.19;90.18;97408.97;10361862;28;20573;-50
2023/04/30 01:01:33;;;;;;;24.27;16.77;;;;;;;8.14;89.50;97400.34;10360637;28;20128;-51
2023/04/30 01:06:32;;;;;;;26.38;17.13;;;;;;;8.14;88.40;97405.53;10359438;28;20098;-52
2023/04/30 01:11:40;;;;;;;25.45;17.55;;;;;;;8.13;88.11;97406.34;10361412;28;20079;-51
2023/04/30 01:16:47;;;;;;;24.45;17.15;;;;;;;8.04;87.87;97395.16;10360736;28;20494;-51
2023/04/30 01:21:48;;;;;;;27.77;18.15;;;;;;;8.03;87.58;97406.31;10360448;28;20108;-51
2023/04/30 01:27:14;;;;;;;28.13;18.90;;;;;;;7.95;88.40;97402.00;10361017;28;20116;-51
2023/04/30 01:32:13;;;;;;;21.15;13.93;;;;;;;7.80;88.04;97405.38;10360537;28;20136;-51
2023/04/30 01:37:23;;;;;;;20.15;14.13;;;;;;;7.61;88.72;97404.44;10360277;28;20031;-49
2023/04/30 01:42:40;;;;;;;24.45;15.13;;;;;;;7.70;87.71;97406.19;10360712;28;20075;-50
2023/04/30 01:48:00;;;;;;;20.90;14.07;;;;;;;7.70;88.13;97413.94;10360339;28;20487;-52
2023/04/30 01:53:05;;;;;;;22.65;15.13;;;;;;;7.70;87.51;97407.06;10359937;28;20203;-49
2023/04/30 01:58:07;;;;;;;26.40;18.08;;;;;;;7.63;87.73;97403.56;10359000;28;20124;-50
2023/04/30 02:03:06;;;;;;;30.45;19.95;;;;;;;7.46;87.79;97376.81;10359944;28;20079;-51
2023/04/30 02:08:05;;;;;;;32.20;20.65;;;;;;;7.42;89.52;97406.06;10359636;28;20069;-50
2023/04/30 02:13:04;;;;;;;30.10;20.05;;;;;;;7.22;90.51;97396.44;10359112;28;20053;-51
2023/04/30 02:18:03;;;;;;;30.17;21.23;;;;;;;7.18;89.76;97396.41;10359616;28;20025;-51
2023/04/30 02:23:02;;;;;;;33.00;20.42;;;;;;;7.23;88.70;97398.16;10359545;28;20120;-51
2023/04/30 02:28:01;;;;;;;27.40;18.95;;;;;;;7.20;89.03;97393.00;10359620;28;20025;-52
2023/04/30 02:33:02;;;;;;;28.90;18.27;;;;;;;7.16;89.67;97403.28;10359928;28;20689;-51
2023/04/30 02:38:01;;;;;;;28.50;16.73;;;;;;;7.03;90.01;97405.78;10359520;28;20075;-51
2023/04/30 02:43:00;;;;;;;22.80;15.98;;;;;;;6.89;89.22;97385.88;10359220;28;20146;-50
2023/04/30 02:47:59;;;;;;;;;;;;;;;6.96;89.57;97409.16;10359113;28;20453;-49
2023/04/30 02:52:58;;;;;;;24.03;15.37;;;;;;;6.99;88.66;97414.34;10359610;28;20396;-51
2023/04/30 02:57:57;;;;;;;30.15;17.67;;;;;;;6.94;88.87;97410.00;10366630;28;20123;-52
2023/04/30 03:02:56;;;;;;;27.77;17.98;;;;;;;6.91;89.04;97409.97;10365961;28;20108;-51
2023/04/30 03:07:55;;;;;;;26.88;18.15;;;;;;;6.80;88.80;97415.91;10365538;28;20116;-51
2023/04/30 03:12:54;;;;;;;;;;;;;;;6.81;88.75;97430.53;10367015;28;20489;-51
2023/04/30 03:17:53;;;;;;;39.63;24.70;;;;;;;6.74;89.71;97433.91;10365769;28;19967;-50
2023/04/30 03:22:52;;;;;;;33.63;22.30;;;;;;;6.65;90.31;97435.53;10364847;28;20120;-52
2023/04/30 03:27:51;;;;;;;33.20;21.65;;;;;;;6.56;90.31;97423.41;10364882;28;20124;-51
2023/04/30 03:32:50;;;;;;;36.40;21.70;;;;;;;6.58;89.99;97438.03;10365653;28;20053;-51
2023/04/30 03:37:49;;;;;;;29.80;18.90;;;;;;;6.64;89.52;97437.25;10364133;28;20120;-51
2023/04/30 03:42:48;;;;;;;31.00;19.42;;;;;;;6.68;88.83;97439.03;10364301;28;20043;-51
2023/04/30 03:47:47;;;;;;;31.83;20.58;;;;;;;6.73;88.70;97445.06;10364268;28;20522;-51
2023/04/30 03:52:46;;;;;;;32.42;19.58;;;;;;;6.78;88.69;97442.53;10364457;28;20057;-52
2023/04/30 03:57:45;;;;;;;25.23;18.45;;;;;;;6.73;88.72;97426.16;10363837;28;20036;-51
2023/04/30 04:02:44;;;;;;;34.58;22.20;;;;;;;6.85;89.00;97454.63;10364099;28;20076;-52
2023/04/30 04:07:44;;;;;;;30.92;21.55;;;;;;;6.96;89.27;97454.72;10362069;28;20083;-51
2023/04/30 04:12:43;;;;;;;29.23;19.25;;;;;;;7.12;88.64;97455.72;10362707;28;20546;-51
2023/04/30 04:17:41;;;;;;;31.38;20.25;;;;;;;7.24;88.78;97456.69;10363242;28;20040;-50
2023/04/30 04:22:40;;;;;;;31.13;22.20;;;;;;;7.41;88.33;97459.41;10363162;28;20498;-51
2023/04/30 04:27:39;;;;;;;33.95;23.70;;;;;;;7.59;88.39;97458.66;10362233;28;20525;-52
2023/04/30 04:32:45;;;;;;;38.35;24.83;;;;;;;7.74;88.49;97464.78;10362706;28;20530;-50
2023/04/30 04:37:44;;;;;;;37.63;25.63;;;;;;;7.80;87.82;97433.78;10360346;28;20164;-51
2023/04/30 04:42:43;;;;;;;;;;;;;;;8.02;87.60;97453.72;10361732;28;20072;-50
2023/04/30 04:47:42;;;;;;;35.65;24.45;;;;;;;8.05;87.42;97437.34;10361077;28;20005;-50
2023/04/30 04:52:41;;;;;;;33.13;23.33;;;;;;;8.22;87.34;97456.34;10361313;28;20069;-51
2023/04/30 04:57:41;;;;;;;29.60;21.42;;;;;;;8.35;87.41;97466.75;10361190;28;20024;-51
2023/04/30 05:02:40;;;;;;;26.55;19.42;;;;;;;8.63;86.42;97473.72;10360551;28;20127;-52
2023/04/30 05:07:40;;;;;;;23.67;17.45;;;;;;;8.75;86.45;97461.69;10360282;28;20149;-50
2023/04/30 05:12:39;;;;;;;;;;;;;;;8.90;86.24;97467.75;10361611;28;20060;-51
2023/04/30 05:17:37;;;;;;;20.45;15.05;;;;;;;9.27;86.46;97464.28;10360156;28;19921;-51
2023/04/30 05:22:36;;;;;;;21.50;15.35;;;;;;;9.70;85.12;97465.13;10360666;28;20033;-51
2023/04/30 05:27:35;;;;;;;20.13;13.15;;;;;;;9.92;83.23;97468.50;10360185;28;20079;-51
2023/04/30 05:32:34;;;;;;;17.98;12.55;;;;;;;9.95;82.31;97444.31;10359496;28;20037;-51
2023/04/30 05:37:33;;;;;;;17.23;14.20;;;;;;;10.36;81.09;97461.44;10360036;28;20092;-51
2023/04/30 05:42:32;;;;;;;18.85;13.30;;;;;;;10.62;80.87;97462.16;10359353;28;20033;-51
2023/04/30 05:47:31;;;;;;;16.90;12.88;;;;;;;10.64;80.70;97458.69;10359049;28;20048;-51
2023/04/30 05:52:31;;;;;;;20.13;15.05;;;;;;;10.82;79.24;97459.44;10360096;28;20075;-51
2023/04/30 05:57:30;;;;;;;15.15;11.18;;;;;;;10.90;79.73;97458.56;10359014;28;20506;-51
2023/04/30 06:02:29;;;;;;;16.23;11.85;;;;;;;11.05;78.59;97453.25;10355173;28;20898;-51
2023/04/30 06:07:28;;;;;;;14.57;11.15;;;;;;;11.40;76.98;97455.53;10359298;28;20045;-51
2023/04/30 06:12:27;;;;;;;17.88;13.02;;;;;;;11.76;76.30;97455.19;10357063;28;20136;-52
2023/04/30 06:17:26;;;;;;;15.70;10.98;;;;;;;12.10;74.18;97461.72;10359192;28;20106;-52
2023/04/30 06:22:25;;;;;;;13.48;10.40;;;;;;;12.50;73.22;97466.47;10358732;28;21216;-51
2023/04/30 06:27:26;;;;;;;15.88;11.32;;;;;;;12.89;72.10;97460.75;10358671;28;20455;-52
2023/04/30 06:32:26;;;;;;;18.27;9.90;;;;;;;13.24;70.59;97459.31;10365875;28;20068;-52
2023/04/30 06:37:25;;;;;;;17.17;11.50;;;;;;;13.36;68.77;97448.69;10366529;28;20351;-53
2023/04/30 06:42:24;;;;;;;12.88;9.68;;;;;;;13.29;67.69;97455.75;10365280;28;20049;-51
2023/04/30 06:47:22;;;;;;;14.80;9.20;;;;;;;13.42;66.44;97443.38;10358343;28;20120;-51
2023/04/30 06:52:21;;;;;;;;;;;;;;;13.43;66.02;97450.31;10365594;28;20783;-52
2023/04/30 06:57:20;;;;;;;12.98;10.10;;;;;;;13.50;66.12;97451.91;10365277;28;20386;-51
2023/04/30 07:02:19;;;;;;;13.23;9.75;;;;;;;13.79;66.54;97466.19;10362003;28;20471;-52
2023/04/30 07:07:20;;;;;;;13.68;8.85;;;;;;;14.04;63.28;97447.50;10364822;28;20052;-52
2023/04/30 07:12:20;;;;;;;14.35;9.27;;;;;;;14.39;62.88;97465.88;10364273;28;20024;-52
2023/04/30 07:17:19;;;;;;;13.15;10.18;;;;;;;14.56;61.43;97472.50;10364398;28;20067;-52
2023/04/30 07:22:17;;;;;;;;;;;;;;;14.76;61.46;97464.28;10365034;28;20025;-51
2023/04/30 07:27:16;;;;;;;16.88;11.75;;;;;;;14.93;60.33;97443.84;10363966;28;19944;-52
2023/04/30 07:32:15;;;;;;;;;;;;;;;14.91;59.46;97458.69;10364363;28;20047;-52
2023/04/30 07:37:14;;;;;;;11.98;8.73;;;;;;;14.82;59.01;97449.31;10364205;28;19952;-52
2023/04/30 07:42:13;;;;;;;;;;;;;;;14.82;59.66;97451.06;10363202;28;20090;-52
2023/04/30 07:47:12;;;;;;;21.47;15.03;;;;;;;14.83;59.61;97453.66;10363470;28;19920;-51
2023/04/30 07:52:12;;;;;;;23.92;20.02;;;;;;;14.98;60.32;97448.97;10364081;28;20144;-52
2023/04/30 07:57:11;;;;;;;24.75;16.48;;;;;;;15.14;61.73;97441.63;10362879;28;20535;-52
2023/04/30 08:02:10;;;;;;;16.35;11.38;;;;;;;15.45;59.45;97444.31;10361845;28;20487;-52
2023/04/30 08:07:09;;;;;;;22.35;11.82;;;;;;;15.66;60.55;97442.91;10362874;28;20513;-52
2023/04/30 08:12:08;;;;;;;;;;;;;;;16.31;60.93;97436.78;10362578;28;20140;-52
2023/04/30 08:17:07;;;;;;;12.67;7.83;;;;;;;16.62;55.14;97439.34;10361931;28;20008;-52
2023/04/30 08:22:06;;;;;;;11.27;7.95;;;;;;;16.71;55.22;97430.34;10361975;28;20029;-52
2023/04/30 08:27:05;;;;;;;;;;;;;;;16.90;55.04;97434.13;10361769;28;20032;-52
2023/04/30 08:32:04;;;;;;;11.60;7.83;;;;;;;17.05;54.55;97411.84;10360986;28;19926;-52
2023/04/30 08:37:03;;;;;;;7.90;5.50;;;;;;;17.60;48.84;97422.25;10356407;28;20064;-52
2023/04/30 08:42:08;;;;;;;6.75;4.20;;;;;;;18.00;47.49;97417.38;10357126;28;20078;-52
2023/04/30 08:47:09;;;;;;;6.38;4.40;;;;;;;18.37;44.17;97396.72;10356827;28;20124;-52
2023/04/30 08:52:09;;;;;;;8.27;5.00;;;;;;;18.95;42.91;97417.28;10357028;28;20136;-54
2023/04/30 08:57:08;;;;;;;6.05;4.00;;;;;;;19.15;41.44;97407.72;10357936;28;20486;-52
2023/04/30 09:02:09;;;;;;;6.00;3.65;;;;;;;19.18;41.24;97399.69;10356395;28;20559;-52
2023/04/30 09:07:08;;;;;;;6.68;4.22;;;;;;;19.58;41.05;97405.94;10360050;28;20645;-53
2023/04/30 09:12:17;;;;;;;8.02;4.70;;;;;;;19.84;40.48;97397.78;10359599;28;20120;-53
2023/04/30 09:17:21;;;;;;;4.80;3.88;;;;;;;19.69;39.38;97394.97;10360212;28;20133;-53
2023/04/30 09:22:23;;;;;;;6.60;3.95;;;;;;;20.08;39.85;97381.81;10358960;28;20116;-54
2023/04/30 09:27:22;;;;;;;4.65;3.70;;;;;;;20.11;38.64;97391.34;10358920;28;20124;-54
2023/04/30 09:32:21;;;;;;;6.82;4.10;;;;;;;20.07;39.24;97382.72;10359186;28;20032;-53
2023/04/30 09:37:20;;;;;;;5.55;3.80;;;;;;;20.09;38.42;97391.41;10359728;28;20065;-53
2023/04/30 09:42:20;;;;;;;6.95;4.13;;;;;;;20.08;38.53;97385.28;10359023;28;20041;-54
2023/04/30 09:47:19;;;;;;;5.53;3.35;;;;;;;20.29;37.22;97377.34;10358408;28;20136;-52
2023/04/30 09:52:20;;;;;;;4.57;3.50;;;;;;;19.95;36.95;97326.19;10358846;28;20554;-53
2023/04/30 09:57:22;;;;;;;6.68;3.92;;;;;;;20.17;38.03;97373.50;10357961;28;20132;-52
2023/04/30 10:02:22;;;;;;;6.65;4.22;;;;;;;19.66;42.09;97267.81;10354785;28;20144;-54
2023/04/30 10:07:25;;;;;;;12.80;4.70;;;;;;;20.25;43.44;97373.13;10364625;28;20180;-53
2023/04/30 10:12:31;;;;;;;7.68;4.63;;;;;;;20.14;45.42;97385.94;10366325;28;20088;-53
2023/04/30 10:17:33;;;;;;;9.65;5.22;;;;;;;20.31;50.35;97386.03;10367078;28;20473;-52
2023/04/30 10:22:33;;;;;;;12.07;5.53;;;;;;;20.36;49.89;97365.59;10365730;28;20513;-52
2023/04/30 10:27:35;;;;;;;7.45;4.82;;;;;;;20.88;50.19;97349.94;10366451;28;20132;-54
2023/04/30 10:32:40;;;;;;;6.30;4.35;;;;;;;21.39;48.09;97363.28;10356629;28;20548;-53
2023/04/30 10:37:47;;;;;;;6.80;4.35;;;;;;;21.63;44.44;97357.66;10365701;28;20772;-54
2023/04/30 10:42:48;;;;;;;5.75;4.40;;;;;;;21.97;41.36;97362.88;10365558;28;20124;-53
2023/04/30 10:47:47;;;;;;;5.47;4.13;;;;;;;21.77;39.44;97334.88;10365137;28;20844;-54
2023/04/30 10:52:46;;;;;;;6.30;4.40;;;;;;;20.93;40.28;97339.16;10365319;28;20064;-53
2023/04/30 10:57:47;;;;;;;4.38;3.80;;;;;;;20.24;42.34;97350.34;10364969;28;20025;-53
2023/04/30 11:02:47;;;;;;;5.50;3.80;;;;;;;19.48;42.84;97362.50;10364787;28;20072;-53
2023/04/30 11:07:56;;;;;;;4.63;3.17;;;;;;;19.12;43.81;97356.09;10364333;28;20072;-53
2023/04/30 11:12:54;;;;;;;5.60;3.05;;;;;;;19.66;43.13;97341.53;10354056;28;20073;-53
2023/04/30 11:17:58;;;;;;;4.65;3.33;;;;;;;20.40;39.85;97338.19;10364684;28;20029;-53
2023/04/30 11:23:08;;;;;;;3.22;2.80;;;;;;;20.25;38.36;97345.00;10363281;28;20163;-53
2023/04/30 11:28:12;;;;;;;6.05;3.08;;;;;;;20.36;41.82;97348.94;10364052;28;20546;-53
2023/04/30 11:33:12;;;;;;;3.95;2.80;;;;;;;20.28;39.12;97344.00;10363341;28;20164;-53
2023/04/30 11:38:11;;;;;;;4.07;2.85;;;;;;;20.43;41.98;97353.00;10363491;28;20428;-53
2023/04/30 11:43:27;;;;;;;5.10;3.67;;;;;;;19.99;42.20;97369.06;10363184;28;20072;-54
2023/04/30 11:48:33;;;;;;;5.05;3.80;;;;;;;19.71;46.05;97391.34;10362992;28;20143;-52
2023/04/30 11:53:32;;;;;;;8.43;4.70;;;;;;;19.56;47.89;97382.34;10361333;28;20131;-53
2023/04/30 11:58:38;;;;;;;8.38;4.75;;;;;;;19.69;50.43;97384.44;10360996;28;20605;-53
2023/04/30 12:03:44;;;;;;;4.88;3.47;;;;;;;20.16;50.41;97371.75;10362234;28;20135;-53
2023/04/30 12:08:43;;;;;;;5.63;3.60;;;;;;;20.74;48.13;97360.31;10361721;28;20199;-53
2023/04/30 12:13:49;;;;;;;5.90;3.50;;;;;;;20.91;45.22;97301.44;10361963;28;20044;-54
2023/04/30 12:18:48;;;;;;;4.85;3.10;;;;;;;21.63;42.40;97355.03;10363096;28;20108;-54
2023/04/30 12:23:47;;;;;;;4.70;3.20;;;;;;;21.68;43.16;97345.06;10362849;28;20112;-54
2023/04/30 12:28:47;;;;;;;3.15;2.72;;;;;;;;;;10361832;28;20028;-54
2023/04/30 12:33:53;;;;;;;4.40;2.88;;;;;;;21.96;43.05;97349.75;10362427;28;20477;-54
2023/04/30 12:39:01;;;;;;;3.15;2.75;;;;;;;21.92;43.57;97343.78;10356413;28;20506;-53
2023/04/30 12:44:13;;;;;;;6.23;3.23;;;;;;;21.79;42.12;97341.88;10361361;28;20061;-54
2023/04/30 12:49:32;;;;;;;3.50;2.80;;;;;;;21.67;42.17;97332.81;10360868;28;20501;-54
2023/04/30 12:54:33;;;;;;;4.47;2.80;;;;;;;21.62;42.97;97326.94;10360007;28;20124;-54
2023/04/30 12:59:34;;;;;;;6.05;3.00;;;;;;;21.67;43.10;97338.09;10358476;28;20152;-54
2023/04/30 13:04:35;;;;;;;3.92;2.95;;;;;;;21.62;44.51;97340.13;10359863;28;20090;-53
2023/04/30 13:09:35;;;;;;;4.35;2.70;;;;;;;21.58;43.96;97338.56;10361652;28;20064;-58
2023/04/30 13:14:35;;;;;;;4.90;2.58;;;;;;;21.38;42.70;97331.69;10360181;28;20594;-53
2023/04/30 13:19:34;;;;;;;3.97;2.58;;;;;;;21.38;41.74;97340.44;10361074;28;20136;-53
2023/04/30 13:24:33;;;;;;;3.40;2.47;;;;;;;21.43;39.57;97330.53;10390218;28;20299;-54
2023/04/30 13:29:32;;;;;;;10.98;5.65;;;;;;;21.12;38.87;97334.69;10360111;28;20052;-53
2023/04/30 13:34:31;;;;;;;6.95;3.13;;;;;;;21.00;40.32;97318.59;10358405;28;20126;-53
2023/04/30 13:39:30;;;;;;;2.50;2.20;;;;;;;20.96;40.12;97298.59;10360553;28;20064;-53
2023/04/30 13:44:31;;;;;;;2.90;2.00;;;;;;;21.16;38.77;97305.50;10359483;28;20036;-54
2023/04/30 13:49:30;;;;;;;2.97;2.22;;;;;;;21.09;38.40;97300.53;10360040;28;20091;-53
2023/04/30 13:54:29;;;;;;;5.53;2.28;;;;;;;21.22;38.30;97311.38;10360030;28;20091;-54
2023/04/30 13:59:28;;;;;;;1.70;1.60;;;;;;;21.03;35.22;97316.69;10359469;28;20401;-54
2023/04/30 14:04:27;;;;;;;1.60;1.50;;;;;;;21.09;37.93;97313.72;10359115;28;20126;-53
2023/04/30 14:09:26;;;;;;;2.90;2.10;;;;;;;21.45;38.93;97296.97;10359930;28;20044;-54
2023/04/30 14:14:25;;;;;;;2.17;1.88;;;;;;;21.64;36.49;97288.06;10359210;28;20031;-53
2023/04/30 14:19:25;;;;;;;2.65;1.80;;;;;;;21.42;36.07;97302.41;10359371;28;20077;-53
2023/04/30 14:24:24;;;;;;;4.13;2.42;;;;;;;21.45;37.25;97302.25;10359367;28;20064;-53
2023/04/30 14:29:24;;;;;;;3.83;2.50;;;;;;;20.86;37.29;97303.47;10359518;28;20071;-53
2023/04/30 14:34:23;;;;;;;3.72;2.35;;;;;;;21.00;37.96;97295.72;10358721;28;20094;-53
2023/04/30 14:39:22;;;;;;;3.28;2.90;;;;;;;21.25;38.39;97286.59;10350017;28;20132;-53
2023/04/30 14:44:23;;;;;;;3.90;3.20;;;;;;;21.65;37.86;97289.78;10354471;28;20419;-53
2023/04/30 14:49:22;;;;;;;3.45;2.47;;;;;;;21.75;36.94;97293.63;10356470;28;20190;-53
2023/04/30 14:54:20;;;;;;;6.97;2.55;;;;;;;21.50;36.43;97284.41;10366009;28;20144;-53
2023/04/30 14:59:19;;;;;;;2.95;2.40;;;;;;;20.77;36.40;97172.06;10363459;28;20036;-53
2023/04/30 15:04:18;;;;;;;3.22;2.40;;;;;;;21.50;36.85;97281.75;10363961;28;20055;-53
2023/04/30 15:09:18;;;;;;;3.42;2.60;;;;;;;21.61;36.37;97290.88;10366077;28;20120;-53
2023/04/30 15:14:17;;;;;;;3.58;2.50;;;;;;;21.72;37.62;97292.00;10362634;28;20076;-53
2023/04/30 15:19:16;;;;;;;3.08;2.72;;;;;;;21.73;38.69;97296.38;10365595;28;20115;-53
2023/04/30 15:24:16;;;;;;;4.32;2.83;;;;;;;21.72;37.62;97293.81;10365682;28;20065;-54
2023/04/30 15:29:15;;;;;;;4.70;3.15;;;;;;;21.65;37.76;97298.56;10365404;28;20136;-53
2023/04/30 15:34:14;;;;;;;4.88;2.65;;;;;;;21.25;37.57;97244.38;10364441;28;20448;-53
2023/04/30 15:39:13;;;;;;;6.47;2.97;;;;;;;21.37;38.22;97304.44;10359949;28;20035;-53
2023/04/30 15:44:12;;;;;;;4.38;3.33;;;;;;;21.22;39.82;97290.25;10364725;28;20043;-53
2023/04/30 15:49:11;;;;;;;6.32;4.03;;;;;;;21.26;40.56;97296.22;10363984;28;20381;-53
2023/04/30 15:54:12;;;;;;;5.40;3.10;;;;;;;21.33;40.53;97302.88;10364594;28;20037;-53
2023/04/30 15:59:14;;;;;;;3.40;2.90;;;;;;;21.24;40.14;97298.06;10363647;28;20220;-54
2023/04/30 16:04:13;;;;;;;10.90;3.88;;;;;;;20.99;39.62;97299.28;10361573;28;20423;-53
2023/04/30 16:09:18;;;;;;;6.47;4.07;;;;;;;20.78;41.27;97289.81;10363326;28;20033;-53
2023/04/30 16:14:17;;;;;;;4.90;4.10;;;;;;;20.58;41.58;97289.00;10363126;28;20072;-52
2023/04/30 16:19:16;;;;;;;4.93;3.53;;;;;;;20.39;41.74;97302.19;10362654;28;20068;-52
2023/04/30 16:24:15;;;;;;;6.57;3.90;;;;;;;20.04;43.18;97301.22;10362735;28;21102;-52
2023/04/30 16:29:14;;;;;;;8.90;5.07;;;;;;;19.76;43.53;97299.00;10362465;28;20039;-53
2023/04/30 16:34:13;;;;;;;10.75;5.25;;;;;;;19.57;44.40;97309.50;10362521;28;20487;-52
2023/04/30 16:39:13;;;;;;;7.57;4.80;;;;;;;19.32;46.82;97307.91;10361737;28;20123;-52
2023/04/30 16:44:12;;;;;;;9.90;6.35;;;;;;;19.03;50.32;97325.78;10361983;28;20483;-52
2023/04/30 16:49:11;;;;;;;9.18;5.90;;;;;;;18.65;51.74;97314.19;10360849;28;20037;-52
2023/04/30 16:54:10;;;;;;;10.73;6.07;;;;;;;18.47;51.20;97331.53;10361632;28;20418;-52
2023/04/30 16:59:09;;;;;;;11.95;6.28;;;;;;;18.32;51.26;97340.03;10361848;28;20064;-52
2023/04/30 17:04:08;;;;;;;10.93;6.15;;;;;;;18.10;50.64;97332.94;10360721;28;20075;-52
2023/04/30 17:09:07;;;;;;;9.02;6.20;;;;;;;17.81;50.63;97348.94;10360426;28;20478;-52
2023/04/30 17:14:06;;;;;;;16.00;8.85;;;;;;;17.21;53.49;97317.78;10361613;28;20485;-52
2023/04/30 17:19:06;;;;;;;13.88;8.27;;;;;;;17.11;56.02;97317.25;10356452;28;20124;-52
2023/04/30 17:24:05;;;;;;;11.45;8.38;;;;;;;17.13;56.89;97369.63;10358467;28;20075;-52
2023/04/30 17:29:05;;;;;;;12.25;8.07;;;;;;;16.83;55.49;97374.97;10360573;28;20036;-52
2023/04/30 17:34:03;;;;;;;10.57;7.13;;;;;;;16.76;56.11;97376.03;10358932;28;20069;-52
2023/04/30 17:39:04;;;;;;;9.85;7.72;;;;;;;16.44;57.87;97377.91;10360186;28;20020;-52
2023/04/30 17:44:03;;;;;;;12.65;7.47;;;;;;;16.35;57.83;97383.44;10353517;28;20998;-52
2023/04/30 17:49:03;;;;;;;13.30;7.47;;;;;;;16.19;57.17;97384.78;10359494;28;20132;-51
2023/04/30 17:54:02;;;;;;;15.70;8.55;;;;;;;16.13;57.41;97401.50;10356639;28;20067;-52
2023/04/30 17:59:01;;;;;;;11.15;8.00;;;;;;;15.51;59.39;97349.19;10354204;28;20079;-52
2023/04/30 18:04:00;;;;;;;10.23;7.60;;;;;;;15.70;60.47;97401.84;10355331;28;20080;-52
2023/04/30 18:09:00;;;;;;;10.45;6.95;;;;;;;15.77;58.70;97424.31;10359730;28;20075;-51
2023/04/30 18:13:59;;;;;;;11.35;8.60;;;;;;;15.44;64.67;97426.94;10360011;28;20068;-51
2023/04/30 18:18:58;;;;;;;13.52;9.70;;;;;;;15.38;63.75;97427.94;10358746;28;20029;-51
2023/04/30 18:23:57;;;;;;;15.27;8.80;;;;;;;15.37;63.22;97412.31;10360368;28;20115;-52
2023/04/30 18:28:56;;;;;;;13.00;8.40;;;;;;;15.48;62.72;97438.16;10368290;28;20130;-52
2023/04/30 18:33:55;;;;;;;15.32;9.10;;;;;;;15.32;68.77;97446.41;10366576;28;20120;-51
2023/04/30 18:38:54;;;;;;;16.90;11.15;;;;;;;15.15;69.93;97452.03;10366777;28;20120;-51
2023/04/30 18:43:53;;;;;;;22.05;16.20;;;;;;;14.87;70.35;97467.47;10367405;28;20617;-52
2023/04/30 18:48:52;;;;;;;;;;;;;;;14.72;71.94;97454.78;10367835;28;20581;-52
2023/04/30 18:53:51;;;;;;;30.97;21.00;;;;;;;14.66;71.01;97467.94;10368118;28;20023;-51
2023/04/30 18:58:50;;;;;;;;;;;;;;;14.56;71.00;97482.94;10368450;28;20068;-50
2023/04/30 19:03:49;;;;;;;26.27;18.77;;;;;;;14.40;72.61;97471.97;10363144;28;20007;-51
2023/04/30 19:08:48;;;;;;;;;;;;;;;14.28;73.72;97473.06;10368743;28;20112;-51
2023/04/30 19:13:47;;;;;;;17.70;13.13;;;;;;;14.14;73.94;97490.75;10368269;28;19948;-51
2023/04/30 19:18:46;;;;;;;;;;;;;;;14.10;73.17;97492.59;10367784;28;20048;-53
2023/04/30 19:23:45;;;;;;;19.00;13.57;;;;;;;14.01;74.44;97499.72;10369102;28;19990;-52
2023/04/30 19:28:43;;;;;;;;;;;;;;;13.77;76.88;97507.09;10368781;28;20881;-52
2023/04/30 19:33:42;;;;;;;18.95;11.18;;;;;;;13.54;77.23;97500.56;10367868;28;19980;-52
2023/04/30 19:38:41;;;;;;;;;;;;;;;13.57;76.81;97486.59;10368251;28;20074;-53
2023/04/30 19:43:40;;;;;;;19.98;11.60;;;;;;;13.50;77.11;97501.44;10366144;28;20007;-52
2023/04/30 19:48:39;;;;;;;18.27;11.98;;;;;;;13.11;79.54;97542.00;10363952;28;20573;-52
2023/04/30 19:53:38;;;;;;;;;;;;;;;12.27;81.86;97589.06;10364510;28;20542;-52
2023/04/30 19:58:37;;;;;;;12.43;7.05;;;;;;;12.36;81.00;97582.03;10363268;28;20366;-52
2023/04/30 20:03:36;;;;;;;;;;;;;;;12.35;82.82;97608.94;10361102;28;20120;-52
2023/04/30 20:08:35;;;;;;;15.05;7.63;;;;;;;12.16;84.08;97610.81;10335431;28;19920;-52
2023/04/30 20:13:34;;;;;;;12.10;7.53;;;;;;;12.08;85.77;97608.28;10366505;28;20123;-52
2023/04/30 20:18:33;;;;;;;;;;;;;;;11.98;88.89;97607.50;10363675;28;20072;-50
2023/04/30 20:23:32;;;;;;;16.02;10.55;;;;;;;12.00;90.10;97587.56;10361407;28;20007;-52
2023/04/30 20:28:30;;;;;;;;;;;;;;;12.05;90.15;97595.31;10362174;28;20035;-49
2023/04/30 20:33:29;;;;;;;13.68;9.50;;;;;;;12.11;91.43;97595.28;10364057;28;19928;-49
2023/04/30 20:38:28;;;;;;;;;;;;;;;12.11;92.12;97597.88;10363659;28;20475;-52
2023/04/30 20:43:27;;;;;;;11.13;8.60;;;;;;;12.18;92.69;97612.53;10361618;28;20458;-51
2023/04/30 20:48:26;;;;;;;;;;;;;;;12.30;92.13;97607.25;10364079;28;20136;-52
2023/04/30 20:53:25;;;;;;;7.57;5.22;;;;;;;12.36;91.94;97623.66;10363118;28;19952;-49
2023/04/30 20:58:24;;;;;;;;;;;;;;;12.44;92.01;97611.44;10362772;28;20132;-50
2023/04/30 21:03:22;;;;;;;8.57;5.75;;;;;;;12.51;92.01;97613.09;10361985;28;19978;-50
2023/04/30 21:08:21;;;;;;;;;;;;;;;12.51;91.75;97608.75;10361260;28;20403;-52
2023/04/30 21:13:20;;;;;;;13.57;8.75;;;;;;;12.23;92.48;97545.72;10362247;28;19920;-49
2023/04/30 21:18:19;;;;;;;10.77;7.82;;;;;;;12.48;93.01;97613.13;10361206;28;20094;-49
2023/04/30 21:23:18;;;;;;;;;;;;;;;12.32;92.66;97602.00;10360980;28;20028;-49
2023/04/30 21:28:17;;;;;;;6.50;5.15;;;;;;;12.20;92.49;97605.56;10362199;28;19931;-49
2023/04/30 21:33:16;;;;;;;6.70;4.80;;;;;;;12.13;91.87;97610.84;10361058;28;20032;-49
2023/04/30 21:38:15;;;;;;;9.77;5.75;;;;;;;12.20;91.00;97610.75;10360685;28;20115;-49
2023/04/30 21:43:16;;;;;;;8.85;5.78;;;;;;;12.24;90.57;97611.59;10361308;28;20098;-52
2023/04/30 21:48:16;;;;;;;7.30;4.97;;;;;;;12.16;89.72;97616.00;10364442;28;20072;-50
2023/04/30 21:53:15;;;;;;;11.20;7.03;;;;;;;11.85;89.61;97572.97;10365861;28;20072;-52
2023/04/30 21:58:14;;;;;;;9.98;6.78;;;;;;;11.74;89.34;97563.53;10365260;28;20037;-52
2023/04/30 22:03:14;;;;;;;11.75;8.10;;;;;;;11.83;90.67;97633.63;10372448;28;20112;-52
2023/04/30 22:08:13;;;;;;;14.60;9.68;;;;;;;11.84;91.33;97638.81;10371512;28;20064;-50
2023/04/30 22:13:12;;;;;;;14.20;10.82;;;;;;;11.65;91.12;97606.06;10369167;28;20060;-51
2023/04/30 22:18:11;;;;;;;13.75;10.48;;;;;;;10.72;91.01;97483.72;10370904;28;20064;-53
2023/04/30 22:23:11;;;;;;;18.70;12.20;;;;;;;11.40;92.32;97642.59;10368850;28;20032;-52
2023/04/30 22:28:10;;;;;;;16.00;11.57;;;;;;;10.99;92.44;97586.56;10371650;28;20577;-52
2023/04/30 22:33:09;;;;;;;22.20;12.45;;;;;;;11.29;91.97;97634.03;10372109;28;20068;-50
2023/04/30 22:38:09;;;;;;;21.15;13.20;;;;;;;11.24;91.04;97638.38;10370634;28;20033;-52
2023/04/30 22:43:08;;;;;;;18.23;12.75;;;;;;;11.20;90.53;97636.69;10370781;28;20076;-52
2023/04/30 22:48:08;;;;;;;;;;;;;;;11.16;91.17;97634.97;10366544;28;20488;-52
2023/04/30 22:53:07;;;;;;;20.60;13.98;;;;;;;11.10;91.33;97629.78;10366689;28;20393;-52
2023/04/30 22:58:06;;;;;;;;;;;;;;;11.00;92.01;97639.34;10366904;28;20524;-52
2023/04/30 23:03:05;;;;;;;23.60;14.60;;;;;;;10.96;91.78;97638.53;10366656;28;20349;-52
2023/04/30 23:08:04;;;;;;;21.27;14.32;;;;;;;10.90;91.88;97632.50;10366295;28;20071;-51
2023/04/30 23:13:03;;;;;;;38.55;24.45;;;;;;;10.78;92.59;97635.97;10364797;28;20035;-51
2023/04/30 23:18:04;;;;;;;35.95;23.60;;;;;;;10.62;92.41;97627.38;10365932;28;20384;-51